sensor_id;sensor_type;location;lat;lon;timestamp;P1;durP1;ratioP1;P2;durP2;ratioP2
62050;SDS011;48008;51.204;6.766;2023-02-22T00:00:51;120.97;;;34.83;;
62050;SDS011;48008;51.204;6.766;2023-02-22T00:03:20;113.07;;;35.17;;
62050;SDS011;48008;51.204;6.766;2023-02-22T00:05:52;117.65;;;33.85;;
62050;SDS011;48008;51.204;6.766;2023-02-22T00:08:21;117.22;;;33.75;;
62050;SDS011;48008;51.204;6.766;2023-02-22T00:10:49;119.38;;;35.20;;
62050;SDS011;48008;51.204;6.766;2023-02-22T00:13:17;119.70;;;36.25;;
62050;SDS011;48008;51.204;6.766;2023-02-22T00:15:45;114.00;;;33.28;;
62050;SDS011;48008;51.204;6.766;2023-02-22T00:18:12;104.78;;;34.33;;
62050;SDS011;48008;51.204;6.766;2023-02-22T00:20:40;100.72;;;30.73;;
62050;SDS011;48008;51.204;6.766;2023-02-22T00:23:11;115.28;;;31.67;;
62050;SDS011;48008;51.204;6.766;2023-02-22T00:25:40;112.85;;;33.03;;
62050;SDS011;48008;51.204;6.766;2023-02-22T00:28:06;116.95;;;31.00;;
62050;SDS011;48008;51.204;6.766;2023-02-22T00:30:33;317.20;;;33.17;;
62050;SDS011;48008;51.204;6.766;2023-02-22T00:33:00;168.32;;;31.05;;
62050;SDS011;48008;51.204;6.766;2023-02-22T00:35:27;155.88;;;29.10;;
62050;SDS011;48008;51.204;6.766;2023-02-22T00:37:57;100.68;;;28.95;;
62050;SDS011;48008;51.204;6.766;2023-02-22T00:40:27;197.00;;;30.23;;
62050;SDS011;48008;51.204;6.766;2023-02-22T00:42:56;268.77;;;31.33;;
62050;SDS011;48008;51.204;6.766;2023-02-22T00:45:24;248.02;;;28.65;;
62050;SDS011;48008;51.204;6.766;2023-02-22T00:47:54;234.60;;;32.05;;
62050;SDS011;48008;51.204;6.766;2023-02-22T00:50:23;201.82;;;29.10;;
62050;SDS011;48008;51.204;6.766;2023-02-22T00:52:52;233.35;;;29.42;;
62050;SDS011;48008;51.204;6.766;2023-02-22T00:55:21;149.77;;;29.10;;
62050;SDS011;48008;51.204;6.766;2023-02-22T01:00:21;159.98;;;24.38;;
62050;SDS011;48008;51.204;6.766;2023-02-22T01:03:06;129.13;;;26.67;;
62050;SDS011;48008;51.204;6.766;2023-02-22T01:05:34;153.27;;;26.80;;
62050;SDS011;48008;51.204;6.766;2023-02-22T01:08:01;206.82;;;25.48;;
62050;SDS011;48008;51.204;6.766;2023-02-22T01:10:28;128.30;;;27.10;;
62050;SDS011;48008;51.204;6.766;2023-02-22T01:12:57;110.78;;;26.70;;
62050;SDS011;48008;51.204;6.766;2023-02-22T01:15:26;139.68;;;28.42;;
62050;SDS011;48008;51.204;6.766;2023-02-22T01:17:56;120.25;;;26.33;;
62050;SDS011;48008;51.204;6.766;2023-02-22T01:20:25;197.85;;;26.55;;
62050;SDS011;48008;51.204;6.766;2023-02-22T01:22:53;185.88;;;25.90;;
62050;SDS011;48008;51.204;6.766;2023-02-22T01:25:22;235.30;;;27.20;;
62050;SDS011;48008;51.204;6.766;2023-02-22T01:27:53;259.30;;;31.08;;
62050;SDS011;48008;51.204;6.766;2023-02-22T01:30:21;329.42;;;26.83;;
62050;SDS011;48008;51.204;6.766;2023-02-22T01:32:50;178.07;;;24.13;;
62050;SDS011;48008;51.204;6.766;2023-02-22T01:35:26;213.65;;;22.58;;
62050;SDS011;48008;51.204;6.766;2023-02-22T01:37:55;215.55;;;23.85;;
62050;SDS011;48008;51.204;6.766;2023-02-22T01:40:25;201.00;;;24.58;;
62050;SDS011;48008;51.204;6.766;2023-02-22T01:42:59;374.88;;;26.10;;
62050;SDS011;48008;51.204;6.766;2023-02-22T01:48:06;166.70;;;24.90;;
62050;SDS011;48008;51.204;6.766;2023-02-22T01:50:58;248.23;;;21.73;;
62050;SDS011;48008;51.204;6.766;2023-02-22T01:53:32;228.48;;;24.63;;
62050;SDS011;48008;51.204;6.766;2023-02-22T01:56:02;220.90;;;23.10;;
62050;SDS011;48008;51.204;6.766;2023-02-22T01:58:30;190.65;;;22.70;;
62050;SDS011;48008;51.204;6.766;2023-02-22T02:01:00;173.35;;;21.60;;
62050;SDS011;48008;51.204;6.766;2023-02-22T02:03:28;134.10;;;21.73;;
62050;SDS011;48008;51.204;6.766;2023-02-22T02:05:59;231.05;;;24.77;;
62050;SDS011;48008;51.204;6.766;2023-02-22T02:08:34;268.35;;;24.02;;
62050;SDS011;48008;51.204;6.766;2023-02-22T02:11:04;206.60;;;21.88;;
62050;SDS011;48008;51.204;6.766;2023-02-22T02:13:34;145.57;;;21.52;;
62050;SDS011;48008;51.204;6.766;2023-02-22T02:16:02;155.00;;;21.17;;
62050;SDS011;48008;51.204;6.766;2023-02-22T02:18:29;117.45;;;21.92;;
62050;SDS011;48008;51.204;6.766;2023-02-22T02:24:11;162.10;;;22.95;;
62050;SDS011;48008;51.204;6.766;2023-02-22T02:27:11;156.13;;;22.45;;
62050;SDS011;48008;51.204;6.766;2023-02-22T02:32:52;90.07;;;22.58;;
62050;SDS011;48008;51.204;6.766;2023-02-22T02:35:38;185.90;;;23.67;;
62050;SDS011;48008;51.204;6.766;2023-02-22T02:41:15;112.85;;;23.05;;
62050;SDS011;48008;51.204;6.766;2023-02-22T02:43:52;106.55;;;22.75;;
62050;SDS011;48008;51.204;6.766;2023-02-22T02:46:26;114.07;;;24.27;;
62050;SDS011;48008;51.204;6.766;2023-02-22T02:49:12;117.90;;;23.38;;
62050;SDS011;48008;51.204;6.766;2023-02-22T02:51:46;99.07;;;22.80;;
62050;SDS011;48008;51.204;6.766;2023-02-22T02:54:17;147.98;;;23.45;;
62050;SDS011;48008;51.204;6.766;2023-02-22T02:56:44;104.72;;;23.27;;
62050;SDS011;48008;51.204;6.766;2023-02-22T02:59:42;111.00;;;23.33;;
62050;SDS011;48008;51.204;6.766;2023-02-22T03:05:10;118.55;;;23.75;;
62050;SDS011;48008;51.204;6.766;2023-02-22T03:08:08;163.13;;;23.02;;
62050;SDS011;48008;51.204;6.766;2023-02-22T03:10:47;163.82;;;23.92;;
62050;SDS011;48008;51.204;6.766;2023-02-22T03:13:41;162.25;;;24.20;;
62050;SDS011;48008;51.204;6.766;2023-02-22T03:16:19;102.72;;;22.23;;
62050;SDS011;48008;51.204;6.766;2023-02-22T03:19:09;105.63;;;24.00;;
62050;SDS011;48008;51.204;6.766;2023-02-22T03:21:45;145.50;;;23.75;;
62050;SDS011;48008;51.204;6.766;2023-02-22T03:24:35;103.68;;;23.65;;
62050;SDS011;48008;51.204;6.766;2023-02-22T03:27:26;123.78;;;23.60;;
62050;SDS011;48008;51.204;6.766;2023-02-22T03:30:05;129.80;;;24.42;;
62050;SDS011;48008;51.204;6.766;2023-02-22T03:32:36;152.65;;;23.00;;
62050;SDS011;48008;51.204;6.766;2023-02-22T03:35:07;96.53;;;23.23;;
62050;SDS011;48008;51.204;6.766;2023-02-22T03:37:39;117.13;;;22.85;;
62050;SDS011;48008;51.204;6.766;2023-02-22T03:40:12;117.83;;;23.33;;
62050;SDS011;48008;51.204;6.766;2023-02-22T03:42:52;136.70;;;25.77;;
62050;SDS011;48008;51.204;6.766;2023-02-22T03:45:26;128.60;;;25.00;;
62050;SDS011;48008;51.204;6.766;2023-02-22T03:47:57;128.57;;;25.92;;
62050;SDS011;48008;51.204;6.766;2023-02-22T03:50:31;129.55;;;24.65;;
62050;SDS011;48008;51.204;6.766;2023-02-22T03:53:01;123.53;;;27.98;;
62050;SDS011;48008;51.204;6.766;2023-02-22T03:55:31;156.85;;;27.55;;
62050;SDS011;48008;51.204;6.766;2023-02-22T03:57:59;128.20;;;29.65;;
62050;SDS011;48008;51.204;6.766;2023-02-22T04:00:32;131.88;;;27.92;;
62050;SDS011;48008;51.204;6.766;2023-02-22T04:03:00;109.22;;;27.45;;
62050;SDS011;48008;51.204;6.766;2023-02-22T04:05:27;110.63;;;26.73;;
62050;SDS011;48008;51.204;6.766;2023-02-22T04:07:56;112.53;;;27.48;;
62050;SDS011;48008;51.204;6.766;2023-02-22T04:10:23;120.05;;;28.77;;
62050;SDS011;48008;51.204;6.766;2023-02-22T04:12:50;99.15;;;26.25;;
62050;SDS011;48008;51.204;6.766;2023-02-22T04:15:19;122.00;;;25.75;;
62050;SDS011;48008;51.204;6.766;2023-02-22T04:17:50;181.85;;;26.77;;
62050;SDS011;48008;51.204;6.766;2023-02-22T04:20:18;112.40;;;26.63;;
62050;SDS011;48008;51.204;6.766;2023-02-22T04:22:51;123.70;;;28.25;;
62050;SDS011;48008;51.204;6.766;2023-02-22T04:25:19;158.07;;;29.35;;
62050;SDS011;48008;51.204;6.766;2023-02-22T04:27:48;113.65;;;28.73;;
62050;SDS011;48008;51.204;6.766;2023-02-22T04:30:19;101.13;;;29.10;;
62050;SDS011;48008;51.204;6.766;2023-02-22T04:32:46;126.10;;;30.02;;
62050;SDS011;48008;51.204;6.766;2023-02-22T04:35:16;115.22;;;29.52;;
62050;SDS011;48008;51.204;6.766;2023-02-22T04:37:43;124.63;;;30.45;;
62050;SDS011;48008;51.204;6.766;2023-02-22T04:40:10;108.00;;;29.83;;
62050;SDS011;48008;51.204;6.766;2023-02-22T04:42:38;127.20;;;32.50;;
62050;SDS011;48008;51.204;6.766;2023-02-22T04:45:06;130.00;;;32.30;;
62050;SDS011;48008;51.204;6.766;2023-02-22T04:47:35;119.43;;;32.47;;
62050;SDS011;48008;51.204;6.766;2023-02-22T04:50:04;119.32;;;32.15;;
62050;SDS011;48008;51.204;6.766;2023-02-22T04:52:32;135.10;;;31.10;;
62050;SDS011;48008;51.204;6.766;2023-02-22T04:54:59;120.53;;;30.70;;
62050;SDS011;48008;51.204;6.766;2023-02-22T04:57:27;162.50;;;32.45;;
62050;SDS011;48008;51.204;6.766;2023-02-22T04:59:54;105.07;;;29.65;;
62050;SDS011;48008;51.204;6.766;2023-02-22T05:02:22;122.55;;;32.63;;
62050;SDS011;48008;51.204;6.766;2023-02-22T05:04:48;130.07;;;32.72;;
62050;SDS011;48008;51.204;6.766;2023-02-22T05:07:16;111.30;;;32.50;;
62050;SDS011;48008;51.204;6.766;2023-02-22T05:09:43;129.02;;;31.75;;
62050;SDS011;48008;51.204;6.766;2023-02-22T05:12:09;114.80;;;32.85;;
62050;SDS011;48008;51.204;6.766;2023-02-22T05:14:36;158.73;;;34.85;;
62050;SDS011;48008;51.204;6.766;2023-02-22T05:17:03;118.72;;;32.25;;
62050;SDS011;48008;51.204;6.766;2023-02-22T05:19:29;104.35;;;32.05;;
62050;SDS011;48008;51.204;6.766;2023-02-22T05:21:56;110.22;;;32.97;;
62050;SDS011;48008;51.204;6.766;2023-02-22T05:24:23;102.97;;;31.95;;
62050;SDS011;48008;51.204;6.766;2023-02-22T05:26:50;94.88;;;30.30;;
62050;SDS011;48008;51.204;6.766;2023-02-22T05:29:16;114.35;;;30.05;;
62050;SDS011;48008;51.204;6.766;2023-02-22T05:31:43;85.28;;;30.65;;
62050;SDS011;48008;51.204;6.766;2023-02-22T05:34:10;82.63;;;28.85;;
62050;SDS011;48008;51.204;6.766;2023-02-22T05:36:37;77.47;;;28.92;;
62050;SDS011;48008;51.204;6.766;2023-02-22T05:39:04;63.95;;;27.05;;
62050;SDS011;48008;51.204;6.766;2023-02-22T05:41:30;63.88;;;25.77;;
62050;SDS011;48008;51.204;6.766;2023-02-22T05:43:57;58.17;;;25.10;;
62050;SDS011;48008;51.204;6.766;2023-02-22T05:46:24;59.03;;;25.40;;
62050;SDS011;48008;51.204;6.766;2023-02-22T05:48:50;57.00;;;25.27;;
62050;SDS011;48008;51.204;6.766;2023-02-22T05:51:17;61.53;;;24.85;;
62050;SDS011;48008;51.204;6.766;2023-02-22T05:53:45;52.35;;;23.52;;
62050;SDS011;48008;51.204;6.766;2023-02-22T05:56:11;50.80;;;22.38;;
62050;SDS011;48008;51.204;6.766;2023-02-22T05:58:38;56.10;;;24.38;;
62050;SDS011;48008;51.204;6.766;2023-02-22T06:01:05;55.20;;;24.00;;
62050;SDS011;48008;51.204;6.766;2023-02-22T06:03:32;53.47;;;23.52;;
62050;SDS011;48008;51.204;6.766;2023-02-22T06:05:58;58.15;;;25.45;;
62050;SDS011;48008;51.204;6.766;2023-02-22T06:08:25;60.25;;;25.98;;
62050;SDS011;48008;51.204;6.766;2023-02-22T06:10:52;69.00;;;25.15;;
62050;SDS011;48008;51.204;6.766;2023-02-22T06:13:19;62.88;;;25.77;;
62050;SDS011;48008;51.204;6.766;2023-02-22T06:15:46;68.05;;;26.88;;
62050;SDS011;48008;51.204;6.766;2023-02-22T06:18:13;70.60;;;28.20;;
62050;SDS011;48008;51.204;6.766;2023-02-22T06:20:39;66.03;;;26.33;;
62050;SDS011;48008;51.204;6.766;2023-02-22T06:23:07;71.45;;;28.67;;
62050;SDS011;48008;51.204;6.766;2023-02-22T06:25:33;66.88;;;27.38;;
62050;SDS011;48008;51.204;6.766;2023-02-22T06:28:01;68.78;;;27.67;;
62050;SDS011;48008;51.204;6.766;2023-02-22T06:30:28;65.93;;;26.75;;
62050;SDS011;48008;51.204;6.766;2023-02-22T06:32:56;75.88;;;27.95;;
62050;SDS011;48008;51.204;6.766;2023-02-22T06:35:22;69.38;;;27.63;;
62050;SDS011;48008;51.204;6.766;2023-02-22T06:37:49;63.42;;;27.13;;
62050;SDS011;48008;51.204;6.766;2023-02-22T06:40:16;63.85;;;26.00;;
62050;SDS011;48008;51.204;6.766;2023-02-22T06:42:43;67.35;;;26.25;;
62050;SDS011;48008;51.204;6.766;2023-02-22T06:45:12;67.18;;;25.63;;
62050;SDS011;48008;51.204;6.766;2023-02-22T06:47:39;56.50;;;24.73;;
62050;SDS011;48008;51.204;6.766;2023-02-22T06:50:07;62.47;;;23.90;;
62050;SDS011;48008;51.204;6.766;2023-02-22T06:52:43;62.65;;;24.58;;
62050;SDS011;48008;51.204;6.766;2023-02-22T06:55:11;49.35;;;22.75;;
62050;SDS011;48008;51.204;6.766;2023-02-22T06:57:42;56.30;;;24.70;;
62050;SDS011;48008;51.204;6.766;2023-02-22T07:00:10;51.20;;;22.65;;
62050;SDS011;48008;51.204;6.766;2023-02-22T07:02:37;57.85;;;24.48;;
62050;SDS011;48008;51.204;6.766;2023-02-22T07:05:04;54.85;;;23.13;;
62050;SDS011;48008;51.204;6.766;2023-02-22T07:07:31;47.65;;;22.80;;
62050;SDS011;48008;51.204;6.766;2023-02-22T07:09:58;45.90;;;21.17;;
62050;SDS011;48008;51.204;6.766;2023-02-22T07:12:25;46.30;;;21.05;;
62050;SDS011;48008;51.204;6.766;2023-02-22T07:14:53;50.58;;;21.98;;
62050;SDS011;48008;51.204;6.766;2023-02-22T07:17:21;44.35;;;20.48;;
62050;SDS011;48008;51.204;6.766;2023-02-22T07:19:48;47.00;;;20.63;;
62050;SDS011;48008;51.204;6.766;2023-02-22T07:22:15;47.85;;;21.00;;
62050;SDS011;48008;51.204;6.766;2023-02-22T07:24:43;43.72;;;21.58;;
62050;SDS011;48008;51.204;6.766;2023-02-22T07:27:09;48.22;;;20.92;;
62050;SDS011;48008;51.204;6.766;2023-02-22T07:29:36;46.80;;;21.30;;
62050;SDS011;48008;51.204;6.766;2023-02-22T07:32:03;55.00;;;21.88;;
62050;SDS011;48008;51.204;6.766;2023-02-22T07:34:29;48.75;;;21.15;;
62050;SDS011;48008;51.204;6.766;2023-02-22T07:36:56;53.17;;;24.30;;
62050;SDS011;48008;51.204;6.766;2023-02-22T07:39:23;54.80;;;25.27;;
62050;SDS011;48008;51.204;6.766;2023-02-22T07:41:49;63.95;;;28.65;;
62050;SDS011;48008;51.204;6.766;2023-02-22T07:44:21;63.42;;;31.52;;
62050;SDS011;48008;51.204;6.766;2023-02-22T07:46:48;63.13;;;32.40;;
62050;SDS011;48008;51.204;6.766;2023-02-22T07:49:15;63.72;;;34.35;;
62050;SDS011;48008;51.204;6.766;2023-02-22T07:51:42;70.80;;;35.63;;
62050;SDS011;48008;51.204;6.766;2023-02-22T07:54:09;67.22;;;35.80;;
62050;SDS011;48008;51.204;6.766;2023-02-22T07:56:36;74.57;;;35.92;;
62050;SDS011;48008;51.204;6.766;2023-02-22T07:59:03;89.13;;;37.97;;
62050;SDS011;48008;51.204;6.766;2023-02-22T08:01:30;72.90;;;35.28;;
62050;SDS011;48008;51.204;6.766;2023-02-22T08:03:57;67.85;;;34.00;;
62050;SDS011;48008;51.204;6.766;2023-02-22T08:06:24;65.70;;;33.60;;
62050;SDS011;48008;51.204;6.766;2023-02-22T08:08:51;63.47;;;31.30;;
62050;SDS011;48008;51.204;6.766;2023-02-22T08:11:17;66.88;;;31.23;;
62050;SDS011;48008;51.204;6.766;2023-02-22T08:13:44;66.20;;;30.67;;
62050;SDS011;48008;51.204;6.766;2023-02-22T08:16:11;61.60;;;30.60;;
62050;SDS011;48008;51.204;6.766;2023-02-22T08:18:38;63.92;;;30.92;;
62050;SDS011;48008;51.204;6.766;2023-02-22T08:21:06;58.53;;;29.27;;
62050;SDS011;48008;51.204;6.766;2023-02-22T08:23:33;58.00;;;29.00;;
62050;SDS011;48008;51.204;6.766;2023-02-22T08:26:08;58.25;;;28.08;;
62050;SDS011;48008;51.204;6.766;2023-02-22T08:28:41;56.97;;;29.42;;
62050;SDS011;48008;51.204;6.766;2023-02-22T08:31:08;59.63;;;29.38;;
62050;SDS011;48008;51.204;6.766;2023-02-22T08:33:36;61.10;;;28.50;;
62050;SDS011;48008;51.204;6.766;2023-02-22T08:36:02;58.63;;;29.50;;
62050;SDS011;48008;51.204;6.766;2023-02-22T08:38:30;56.88;;;28.67;;
62050;SDS011;48008;51.204;6.766;2023-02-22T08:40:59;49.80;;;26.65;;
62050;SDS011;48008;51.204;6.766;2023-02-22T08:43:25;51.00;;;26.15;;
62050;SDS011;48008;51.204;6.766;2023-02-22T08:45:53;51.83;;;26.73;;
62050;SDS011;48008;51.204;6.766;2023-02-22T08:48:22;48.97;;;24.73;;
62050;SDS011;48008;51.204;6.766;2023-02-22T08:50:49;48.78;;;23.75;;
62050;SDS011;48008;51.204;6.766;2023-02-22T08:53:16;49.70;;;24.75;;
62050;SDS011;48008;51.204;6.766;2023-02-22T08:55:43;53.08;;;24.60;;
62050;SDS011;48008;51.204;6.766;2023-02-22T08:58:11;48.25;;;23.65;;
62050;SDS011;48008;51.204;6.766;2023-02-22T09:00:38;54.45;;;23.80;;
62050;SDS011;48008;51.204;6.766;2023-02-22T09:03:07;51.22;;;25.17;;
62050;SDS011;48008;51.204;6.766;2023-02-22T09:05:36;47.92;;;25.00;;
62050;SDS011;48008;51.204;6.766;2023-02-22T09:08:02;48.03;;;24.15;;
62050;SDS011;48008;51.204;6.766;2023-02-22T09:10:30;49.75;;;24.38;;
62050;SDS011;48008;51.204;6.766;2023-02-22T09:12:58;52.20;;;24.48;;
62050;SDS011;48008;51.204;6.766;2023-02-22T09:15:26;56.00;;;25.98;;
62050;SDS011;48008;51.204;6.766;2023-02-22T09:17:54;54.90;;;27.27;;
62050;SDS011;48008;51.204;6.766;2023-02-22T09:20:22;59.72;;;26.10;;
62050;SDS011;48008;51.204;6.766;2023-02-22T09:22:50;54.78;;;25.63;;
62050;SDS011;48008;51.204;6.766;2023-02-22T09:25:20;53.47;;;26.65;;
62050;SDS011;48008;51.204;6.766;2023-02-22T09:27:50;56.75;;;27.67;;
62050;SDS011;48008;51.204;6.766;2023-02-22T09:30:27;51.50;;;27.15;;
62050;SDS011;48008;51.204;6.766;2023-02-22T09:32:59;59.30;;;26.75;;
62050;SDS011;48008;51.204;6.766;2023-02-22T09:35:29;53.58;;;26.17;;
62050;SDS011;48008;51.204;6.766;2023-02-22T09:38:17;53.05;;;25.77;;
62050;SDS011;48008;51.204;6.766;2023-02-22T09:40:52;46.90;;;24.15;;
62050;SDS011;48008;51.204;6.766;2023-02-22T09:43:32;49.65;;;24.65;;
62050;SDS011;48008;51.204;6.766;2023-02-22T09:46:37;49.15;;;23.48;;
62050;SDS011;48008;51.204;6.766;2023-02-22T09:49:36;49.42;;;22.75;;
62050;SDS011;48008;51.204;6.766;2023-02-22T09:51:59;47.08;;;21.95;;
62050;SDS011;48008;51.204;6.766;2023-02-22T09:54:38;44.55;;;21.10;;
62050;SDS011;48008;51.204;6.766;2023-02-22T09:57:10;45.17;;;22.42;;
62050;SDS011;48008;51.204;6.766;2023-02-22T09:59:47;46.28;;;23.17;;
62050;SDS011;48008;51.204;6.766;2023-02-22T10:02:28;46.90;;;23.52;;
62050;SDS011;48008;51.204;6.766;2023-02-22T10:05:07;43.40;;;22.60;;
62050;SDS011;48008;51.204;6.766;2023-02-22T10:07:44;42.28;;;22.63;;
62050;SDS011;48008;51.204;6.766;2023-02-22T10:10:16;43.97;;;21.40;;
62050;SDS011;48008;51.204;6.766;2023-02-22T10:16:10;45.20;;;22.17;;
62050;SDS011;48008;51.204;6.766;2023-02-22T10:22:12;42.90;;;20.83;;
62050;SDS011;48008;51.204;6.766;2023-02-22T10:27:34;48.05;;;20.95;;
62050;SDS011;48008;51.204;6.766;2023-02-22T10:30:23;42.00;;;21.17;;
62050;SDS011;48008;51.204;6.766;2023-02-22T10:32:56;42.97;;;20.42;;
62050;SDS011;48008;51.204;6.766;2023-02-22T10:35:34;42.80;;;21.45;;
62050;SDS011;48008;51.204;6.766;2023-02-22T10:38:10;42.45;;;21.65;;
62050;SDS011;48008;51.204;6.766;2023-02-22T10:40:45;44.22;;;21.38;;
62050;SDS011;48008;51.204;6.766;2023-02-22T10:43:14;38.30;;;20.40;;
62050;SDS011;48008;51.204;6.766;2023-02-22T10:45:41;41.42;;;20.05;;
62050;SDS011;48008;51.204;6.766;2023-02-22T10:48:10;45.42;;;19.42;;
62050;SDS011;48008;51.204;6.766;2023-02-22T10:50:41;40.63;;;20.88;;
62050;SDS011;48008;51.204;6.766;2023-02-22T10:53:09;42.17;;;19.63;;
62050;SDS011;48008;51.204;6.766;2023-02-22T10:55:36;40.92;;;20.60;;
62050;SDS011;48008;51.204;6.766;2023-02-22T11:01:34;38.08;;;19.73;;
62050;SDS011;48008;51.204;6.766;2023-02-22T11:04:06;36.20;;;18.67;;
62050;SDS011;48008;51.204;6.766;2023-02-22T11:06:46;38.00;;;18.10;;
62050;SDS011;48008;51.204;6.766;2023-02-22T11:09:17;40.78;;;18.83;;
62050;SDS011;48008;51.204;6.766;2023-02-22T11:11:50;38.10;;;18.08;;
62050;SDS011;48008;51.204;6.766;2023-02-22T11:14:34;42.30;;;19.02;;
62050;SDS011;48008;51.204;6.766;2023-02-22T11:17:00;43.10;;;17.85;;
62050;SDS011;48008;51.204;6.766;2023-02-22T11:19:33;45.20;;;19.13;;
62050;SDS011;48008;51.204;6.766;2023-02-22T11:22:21;37.65;;;17.65;;
62050;SDS011;48008;51.204;6.766;2023-02-22T11:25:03;37.33;;;17.60;;
62050;SDS011;48008;51.204;6.766;2023-02-22T11:27:36;33.00;;;16.73;;
62050;SDS011;48008;51.204;6.766;2023-02-22T11:30:10;36.20;;;17.83;;
62050;SDS011;48008;51.204;6.766;2023-02-22T11:32:58;34.85;;;18.13;;
62050;SDS011;48008;51.204;6.766;2023-02-22T11:35:52;39.92;;;19.27;;
62050;SDS011;48008;51.204;6.766;2023-02-22T11:38:25;40.28;;;19.45;;
62050;SDS011;48008;51.204;6.766;2023-02-22T11:41:26;35.03;;;18.10;;
62050;SDS011;48008;51.204;6.766;2023-02-22T11:43:52;41.95;;;18.38;;
62050;SDS011;48008;51.204;6.766;2023-02-22T11:46:21;37.30;;;18.17;;
62050;SDS011;48008;51.204;6.766;2023-02-22T11:49:23;32.85;;;18.00;;
62050;SDS011;48008;51.204;6.766;2023-02-22T12:01:20;37.67;;;18.40;;
62050;SDS011;48008;51.204;6.766;2023-02-22T12:06:45;35.40;;;18.50;;
62050;SDS011;48008;51.204;6.766;2023-02-22T12:09:29;38.13;;;19.63;;
62050;SDS011;48008;51.204;6.766;2023-02-22T12:12:08;33.20;;;18.10;;
62050;SDS011;48008;51.204;6.766;2023-02-22T12:15:25;32.50;;;18.60;;
62050;SDS011;48008;51.204;6.766;2023-02-22T12:21:01;38.30;;;18.98;;
62050;SDS011;48008;51.204;6.766;2023-02-22T12:23:37;32.25;;;17.88;;
62050;SDS011;48008;51.204;6.766;2023-02-22T12:26:13;39.05;;;19.13;;
62050;SDS011;48008;51.204;6.766;2023-02-22T12:28:47;35.17;;;18.05;;
62050;SDS011;48008;51.204;6.766;2023-02-22T12:31:28;35.25;;;18.95;;
62050;SDS011;48008;51.204;6.766;2023-02-22T12:40:23;33.17;;;17.15;;
62050;SDS011;48008;51.204;6.766;2023-02-22T12:42:58;35.95;;;17.23;;
62050;SDS011;48008;51.204;6.766;2023-02-22T12:45:37;37.45;;;18.08;;
62050;SDS011;48008;51.204;6.766;2023-02-22T12:50:52;35.80;;;17.23;;
62050;SDS011;48008;51.204;6.766;2023-02-22T12:53:25;29.85;;;16.33;;
62050;SDS011;48008;51.204;6.766;2023-02-22T12:55:59;29.73;;;15.48;;
62050;SDS011;48008;51.204;6.766;2023-02-22T12:58:48;29.20;;;15.80;;
62050;SDS011;48008;51.204;6.766;2023-02-22T13:01:22;32.00;;;16.10;;
62050;SDS011;48008;51.204;6.766;2023-02-22T13:03:55;30.55;;;16.58;;
62050;SDS011;48008;51.204;6.766;2023-02-22T13:07:10;29.90;;;16.08;;
62050;SDS011;48008;51.204;6.766;2023-02-22T13:09:34;38.92;;;17.10;;
62050;SDS011;48008;51.204;6.766;2023-02-22T13:12:22;31.65;;;14.98;;
62050;SDS011;48008;51.204;6.766;2023-02-22T13:15:07;33.60;;;16.08;;
62050;SDS011;48008;51.204;6.766;2023-02-22T13:17:46;31.80;;;15.70;;
62050;SDS011;48008;51.204;6.766;2023-02-22T13:20:45;33.17;;;14.57;;
62050;SDS011;48008;51.204;6.766;2023-02-22T13:23:18;42.00;;;14.93;;
62050;SDS011;48008;51.204;6.766;2023-02-22T13:28:43;31.25;;;16.00;;
62050;SDS011;48008;51.204;6.766;2023-02-22T13:31:20;34.65;;;15.88;;
62050;SDS011;48008;51.204;6.766;2023-02-22T13:34:17;27.88;;;15.18;;
62050;SDS011;48008;51.204;6.766;2023-02-22T13:37:03;31.10;;;14.88;;
62050;SDS011;48008;51.204;6.766;2023-02-22T13:48:36;24.23;;;13.98;;
62050;SDS011;48008;51.204;6.766;2023-02-22T13:51:41;33.47;;;14.82;;
62050;SDS011;48008;51.204;6.766;2023-02-22T13:54:22;28.80;;;14.52;;
62050;SDS011;48008;51.204;6.766;2023-02-22T13:56:56;29.77;;;13.98;;
62050;SDS011;48008;51.204;6.766;2023-02-22T13:59:28;32.83;;;16.25;;
62050;SDS011;48008;51.204;6.766;2023-02-22T14:02:02;33.08;;;15.32;;
62050;SDS011;48008;51.204;6.766;2023-02-22T14:04:33;27.88;;;15.23;;
62050;SDS011;48008;51.204;6.766;2023-02-22T14:07:43;29.40;;;14.30;;
62050;SDS011;48008;51.204;6.766;2023-02-22T14:10:00;28.77;;;14.45;;
62050;SDS011;48008;51.204;6.766;2023-02-22T14:15:12;28.63;;;14.10;;
62050;SDS011;48008;51.204;6.766;2023-02-22T14:20:30;30.52;;;13.43;;
62050;SDS011;48008;51.204;6.766;2023-02-22T14:23:33;28.35;;;13.55;;
62050;SDS011;48008;51.204;6.766;2023-02-22T14:26:15;23.25;;;12.75;;
62050;SDS011;48008;51.204;6.766;2023-02-22T14:28:57;24.20;;;12.07;;
62050;SDS011;48008;51.204;6.766;2023-02-22T14:37:22;25.95;;;11.80;;
62050;SDS011;48008;51.204;6.766;2023-02-22T14:39:57;23.45;;;13.15;;
62050;SDS011;48008;51.204;6.766;2023-02-22T14:42:42;28.45;;;12.25;;
62050;SDS011;48008;51.204;6.766;2023-02-22T14:45:16;25.50;;;11.68;;
62050;SDS011;48008;51.204;6.766;2023-02-22T14:48:08;25.05;;;12.52;;
62050;SDS011;48008;51.204;6.766;2023-02-22T14:50:51;25.50;;;12.50;;
62050;SDS011;48008;51.204;6.766;2023-02-22T14:53:23;23.20;;;12.30;;
62050;SDS011;48008;51.204;6.766;2023-02-22T14:55:56;22.20;;;12.48;;
62050;SDS011;48008;51.204;6.766;2023-02-22T14:58:36;29.10;;;13.52;;
62050;SDS011;48008;51.204;6.766;2023-02-22T15:03:54;23.52;;;11.73;;
62050;SDS011;48008;51.204;6.766;2023-02-22T15:06:32;26.50;;;12.18;;
62050;SDS011;48008;51.204;6.766;2023-02-22T15:09:17;28.73;;;11.75;;
62050;SDS011;48008;51.204;6.766;2023-02-22T15:11:52;28.83;;;12.32;;
62050;SDS011;48008;51.204;6.766;2023-02-22T15:14:22;23.17;;;11.85;;
62050;SDS011;48008;51.204;6.766;2023-02-22T15:16:52;20.70;;;11.65;;
62050;SDS011;48008;51.204;6.766;2023-02-22T15:19:23;23.70;;;11.30;;
62050;SDS011;48008;51.204;6.766;2023-02-22T15:21:53;22.90;;;11.52;;
62050;SDS011;48008;51.204;6.766;2023-02-22T15:24:23;24.67;;;13.75;;
62050;SDS011;48008;51.204;6.766;2023-02-22T15:26:54;23.05;;;11.38;;
62050;SDS011;48008;51.204;6.766;2023-02-22T15:29:31;24.50;;;10.95;;
62050;SDS011;48008;51.204;6.766;2023-02-22T15:32:10;23.23;;;11.32;;
62050;SDS011;48008;51.204;6.766;2023-02-22T15:37:23;25.15;;;11.85;;
62050;SDS011;48008;51.204;6.766;2023-02-22T15:39:51;26.58;;;13.27;;
62050;SDS011;48008;51.204;6.766;2023-02-22T15:42:25;27.38;;;12.73;;
62050;SDS011;48008;51.204;6.766;2023-02-22T15:44:55;27.73;;;13.10;;
62050;SDS011;48008;51.204;6.766;2023-02-22T15:47:24;23.63;;;13.23;;
62050;SDS011;48008;51.204;6.766;2023-02-22T15:53:02;30.88;;;12.57;;
62050;SDS011;48008;51.204;6.766;2023-02-22T15:55:53;24.08;;;12.73;;
62050;SDS011;48008;51.204;6.766;2023-02-22T15:58:23;23.58;;;12.52;;
62050;SDS011;48008;51.204;6.766;2023-02-22T16:01:02;23.98;;;13.75;;
62050;SDS011;48008;51.204;6.766;2023-02-22T16:03:34;23.60;;;13.32;;
62050;SDS011;48008;51.204;6.766;2023-02-22T16:06:14;22.60;;;12.52;;
62050;SDS011;48008;51.204;6.766;2023-02-22T16:09:10;25.92;;;13.70;;
62050;SDS011;48008;51.204;6.766;2023-02-22T16:14:40;26.17;;;13.98;;
62050;SDS011;48008;51.204;6.766;2023-02-22T16:17:10;24.42;;;13.85;;